Station Historical Data
Daily Summary for September 16, 2017 Units:  English    Metric   Both
« Previous Day
Next Day »
Daily Weekly Monthly Yearly Custom
  High: Low: Average:
Temperature: 82.9 °F 58.1 °F 69.1 °F
Dew Point: 66.7 °F 55.8 °F 61.5 °F
Humidity: 93% 53% 78%
Wind Speed: 5.0mph 0.0mph 0.8mph
Wind Gust: 9.0mph - -
Wind- - SSE
Pressure: 30.21 in 30.13 in -
Precipitation: 0.00 in    
Historical Graphs
 
 
Tabular Data for September 16, 2017
Time Temperature Dew Point Pressure Wind Wind Speed Wind Gust Humidity Rainfall Rate (Hourly)
00:04 62.4 °F 59.1 °F 30.14 in Calm     89% 0.00 in
00:09 62.3 °F 59.0 °F 30.14 in Calm     89% 0.00 in
00:14 62.1 °F 58.8 °F 30.14 in Calm     89% 0.00 in
00:19 62.0 °F 58.7 °F 30.14 in Calm     89% 0.00 in
00:24 61.8 °F 58.8 °F 30.15 in Calm     90% 0.00 in
00:29 61.6 °F 58.6 °F 30.15 in Calm     90% 0.00 in
00:34 61.6 °F 58.6 °F 30.15 in Calm     90% 0.00 in
00:39 61.6 °F 58.6 °F 30.15 in Calm     90% 0.00 in
00:44 61.5 °F 58.5 °F 30.15 in Calm     90% 0.00 in
00:49 61.4 °F 58.4 °F 30.15 in Calm     90% 0.00 in
00:54 61.3 °F 58.3 °F 30.15 in Calm     90% 0.00 in
00:59 61.2 °F 58.2 °F 30.15 in Calm     90% 0.00 in
01:04 61.0 °F 58.0 °F 30.15 in Calm     90% 0.00 in
01:09 60.9 °F 57.9 °F 30.15 in Calm     90% 0.00 in
01:14 60.8 °F 57.8 °F 30.15 in Calm     90% 0.00 in
01:19 60.8 °F 57.8 °F 30.15 in Calm     90% 0.00 in
01:24 61.2 °F 58.6 °F 30.15 in Calm     91% 0.00 in
01:29 61.3 °F 58.7 °F 30.15 in Calm     91% 0.00 in
01:34 61.3 °F 58.3 °F 30.15 in Calm     90% 0.00 in
01:39 61.2 °F 58.2 °F 30.15 in Calm     90% 0.00 in
01:44 61.1 °F 58.1 °F 30.15 in Calm     90% 0.00 in
01:49 61.0 °F 58.0 °F 30.15 in Calm     90% 0.00 in
01:54 60.7 °F 57.7 °F 30.15 in Calm     90% 0.00 in
01:59 60.5 °F 57.6 °F 30.15 in Calm     90% 0.00 in
02:04 60.5 °F 57.6 °F 30.15 in Calm     90% 0.00 in
02:09 60.5 °F 57.6 °F 30.15 in Calm     90% 0.00 in
02:14 60.4 °F 57.5 °F 30.15 in Calm     90% 0.00 in
02:19 60.1 °F 57.2 °F 30.15 in Calm     90% 0.00 in
02:24 59.9 °F 57.0 °F 30.15 in Calm     90% 0.00 in
02:29 59.9 °F 57.3 °F 30.15 in Calm     91% 0.00 in
02:34 60.0 °F 57.4 °F 30.15 in Calm     91% 0.00 in
02:39 59.8 °F 57.2 °F 30.15 in Calm     91% 0.00 in
02:44 59.8 °F 57.2 °F 30.15 in Calm     91% 0.00 in
02:49 59.7 °F 57.1 °F 30.16 in Calm     91% 0.00 in
02:54 59.6 °F 57.0 °F 30.15 in Calm     91% 0.00 in
02:59 59.7 °F 57.1 °F 30.16 in Calm     91% 0.00 in
03:04 59.9 °F 57.3 °F 30.15 in Calm     91% 0.00 in
03:09 59.7 °F 57.1 °F 30.15 in Calm     91% 0.00 in
03:14 59.5 °F 56.9 °F 30.16 in Calm     91% 0.00 in
03:19 59.3 °F 56.7 °F 30.15 in Calm     91% 0.00 in
03:24 59.3 °F 56.7 °F 30.15 in Calm     91% 0.00 in
03:29 59.5 °F 57.2 °F 30.15 in Calm     92% 0.00 in
03:34 59.5 °F 56.9 °F 30.15 in Calm     91% 0.00 in
03:39 59.3 °F 57.0 °F 30.16 in Calm     92% 0.00 in
03:44 59.4 °F 57.1 °F 30.16 in Calm     92% 0.00 in
03:49 59.4 °F 56.8 °F 30.16 in Calm     91% 0.00 in
03:54 59.4 °F 57.1 °F 30.16 in Calm     92% 0.00 in
03:59 59.4 °F 57.1 °F 30.16 in Calm     92% 0.00 in
04:04 59.2 °F 56.6 °F 30.16 in Calm     91% 0.00 in
04:09 59.2 °F 56.9 °F 30.16 in Calm     92% 0.00 in
04:14 59.3 °F 57.0 °F 30.16 in Calm     92% 0.00 in
04:19 59.2 °F 56.9 °F 30.16 in Calm     92% 0.00 in
04:29 58.9 °F 56.3 °F 30.16 in Calm     91% 0.00 in
04:34 58.6 °F 56.0 °F 30.16 in Calm     91% 0.00 in
04:39 58.6 °F 56.0 °F 30.16 in Calm     91% 0.00 in
04:44 58.4 °F 56.1 °F 30.16 in Calm     92% 0.00 in
04:49 58.6 °F 56.3 °F 30.16 in Calm     92% 0.00 in
04:54 58.7 °F 56.4 °F 30.16 in Calm     92% 0.00 in
04:59 58.8 °F 56.5 °F 30.16 in Calm     92% 0.00 in
05:04 58.8 °F 56.5 °F 30.16 in Calm     92% 0.00 in
05:09 58.8 °F 56.5 °F 30.16 in Calm     92% 0.00 in
05:14 58.8 °F 56.5 °F 30.16 in Calm     92% 0.00 in
05:19 58.6 °F 56.3 °F 30.16 in Calm     92% 0.00 in
05:24 58.5 °F 56.2 °F 30.16 in Calm     92% 0.00 in
05:29 58.5 °F 56.2 °F 30.16 in Calm     92% 0.00 in
05:34 58.5 °F 56.2 °F 30.16 in Calm     92% 0.00 in
05:39 58.5 °F 56.2 °F 30.16 in Calm     92% 0.00 in
05:44 58.3 °F 56.0 °F 30.16 in Calm     92% 0.00 in
05:49 58.3 °F 56.0 °F 30.16 in Calm     92% 0.00 in
05:54 58.5 °F 56.2 °F 30.17 in Calm     92% 0.00 in
05:59 58.4 °F 56.1 °F 30.17 in Calm     92% 0.00 in
06:04 58.2 °F 55.9 °F 30.17 in Calm     92% 0.00 in
06:09 58.2 °F 55.9 °F 30.17 in Calm     92% 0.00 in
06:14 58.1 °F 55.8 °F 30.17 in Calm     92% 0.00 in
06:19 58.2 °F 55.9 °F 30.17 in Calm     92% 0.00 in
06:24 58.3 °F 56.0 °F 30.17 in Calm     92% 0.00 in
06:29 58.2 °F 55.9 °F 30.17 in Calm     92% 0.00 in
06:34 58.1 °F 55.8 °F 30.17 in Calm     92% 0.00 in
06:39 58.1 °F 55.8 °F 30.17 in Calm     92% 0.00 in
06:44 58.1 °F 55.8 °F 30.17 in Calm     92% 0.00 in
06:49 58.2 °F 55.9 °F 30.17 in Calm     92% 0.00 in
06:54 58.1 °F 55.8 °F 30.17 in Calm     92% 0.00 in
06:59 58.3 °F 56.0 °F 30.17 in Calm     92% 0.00 in
07:04 58.2 °F 55.9 °F 30.17 in Calm     92% 0.00 in
07:09 58.2 °F 55.9 °F 30.18 in Calm     92% 0.00 in
07:14 58.2 °F 55.9 °F 30.18 in Calm     92% 0.00 in
07:19 58.2 °F 55.9 °F 30.18 in Calm     92% 0.00 in
07:24 58.3 °F 56.3 °F 30.18 in Calm     93% 0.00 in
07:29 58.4 °F 56.1 °F 30.18 in Calm     92% 0.00 in
07:34 58.6 °F 56.3 °F 30.18 in Calm     92% 0.00 in
07:39 58.8 °F 56.8 °F 30.19 in Calm     93% 0.00 in
07:44 58.9 °F 56.9 °F 30.19 in Calm     93% 0.00 in
07:49 59.1 °F 56.8 °F 30.19 in Calm     92% 0.00 in
07:54 59.3 °F 57.0 °F 30.19 in Calm     92% 0.00 in
07:59 59.5 °F 57.2 °F 30.19 in Calm     92% 0.00 in
08:04 59.7 °F 57.4 °F 30.20 in Calm     92% 0.00 in
08:09 60.0 °F 57.7 °F 30.20 in Calm     92% 0.00 in
08:14 60.3 °F 57.7 °F 30.20 in Calm     91% 0.00 in
08:19 60.7 °F 58.4 °F 30.20 in Calm     92% 0.00 in
08:24 61.0 °F 58.4 °F 30.20 in Calm     91% 0.00 in
08:29 61.4 °F 58.4 °F 30.20 in Calm     90% 0.00 in
08:34 61.9 °F 58.9 °F 30.20 in Calm     90% 0.00 in
08:39 62.2 °F 58.9 °F 30.20 in Calm     89% 0.00 in
08:44 62.6 °F 59.3 °F 30.20 in Calm     89% 0.00 in
08:49 63.0 °F 59.4 °F 30.20 in Calm     88% 0.00 in
08:54 63.4 °F 59.5 °F 30.20 in Calm     87% 0.00 in
08:59 63.8 °F 59.9 °F 30.20 in Calm     87% 0.00 in
09:04 64.2 °F 59.9 °F 30.20 in Calm     86% 0.00 in
09:09 64.7 °F 60.4 °F 30.20 in Calm     86% 0.00 in
09:14 65.1 °F 60.1 °F 30.20 in Calm     84% 0.00 in
09:19 65.6 °F 60.6 °F 30.20 in Calm     84% 0.00 in
09:24 66.2 °F 60.9 °F 30.20 in Calm   3.0 mph 83% 0.00 in
09:29 66.7 °F 61.0 °F 30.20 in SE 4.0 mph 5.0 mph 82% 0.00 in
09:39 67.4 °F 61.7 °F 30.20 in SSE 3.0 mph 5.0 mph 82% 0.00 in
09:44 67.8 °F 61.8 °F 30.20 in SE 2.0 mph 5.0 mph 81% 0.00 in
09:49 68.4 °F 62.0 °F 30.20 in SE 1.0 mph 3.0 mph 80% 0.00 in
09:54 69.5 °F 62.7 °F 30.20 in Calm   2.0 mph 79% 0.00 in
09:59 69.9 °F 62.7 °F 30.21 in Calm   1.0 mph 78% 0.00 in
10:04 70.5 °F 62.6 °F 30.20 in SE 1.0 mph 3.0 mph 76% 0.00 in
10:09 70.7 °F 63.1 °F 30.21 in SE 2.0 mph 3.0 mph 77% 0.00 in
10:19 71.9 °F 63.9 °F 30.20 in SE 2.0 mph 4.0 mph 76% 0.00 in
10:24 72.6 °F 63.4 °F 30.21 in ESE 1.0 mph 4.0 mph 73% 0.00 in
10:29 72.6 °F 63.4 °F 30.20 in Calm   4.0 mph 73% 0.00 in
10:34 73.2 °F 63.6 °F 30.20 in Calm   3.0 mph 72% 0.00 in
10:39 73.7 °F 63.3 °F 30.20 in SE 2.0 mph 3.0 mph 70% 0.00 in
10:44 73.8 °F 63.4 °F 30.20 in SSE 2.0 mph 6.0 mph 70% 0.00 in
10:49 74.2 °F 64.6 °F 30.20 in ESE 2.0 mph 4.0 mph 72% 0.00 in
10:54 74.4 °F 64.4 °F 30.20 in SSE 2.0 mph 5.0 mph 71% 0.00 in
10:59 75.0 °F 65.0 °F 30.20 in Calm   4.0 mph 71% 0.00 in
11:04 75.3 °F 64.8 °F 30.19 in SE 1.0 mph 4.0 mph 70% 0.00 in
11:09 75.7 °F 65.2 °F 30.19 in Calm   5.0 mph 70% 0.00 in
11:14 76.0 °F 65.5 °F 30.19 in SSE 2.0 mph 5.0 mph 70% 0.00 in
11:19 76.5 °F 66.4 °F 30.19 in SSE 2.0 mph 4.0 mph 71% 0.00 in
11:24 76.4 °F 65.1 °F 30.19 in SSE 2.0 mph 4.0 mph 68% 0.00 in
11:29 76.7 °F 65.8 °F 30.19 in SSE 2.0 mph 7.0 mph 69% 0.00 in
11:34 76.3 °F 65.0 °F 30.19 in SSE 2.0 mph 7.0 mph 68% 0.00 in
11:39 76.9 °F 65.1 °F 30.19 in SE 1.0 mph 5.0 mph 67% 0.00 in
11:44 77.1 °F 64.4 °F 30.19 in SSE 2.0 mph 5.0 mph 65% 0.00 in
11:49 77.0 °F 64.3 °F 30.19 in SSE 2.0 mph 4.0 mph 65% 0.00 in
11:54 77.2 °F 65.4 °F 30.19 in SSE 1.0 mph 2.0 mph 67% 0.00 in
11:59 77.1 °F 63.1 °F 30.19 in ESE 1.0 mph 3.0 mph 62% 0.00 in
12:04 77.7 °F 64.5 °F 30.19 in Calm   3.0 mph 64% 0.00 in
12:09 77.5 °F 64.4 °F 30.19 in Calm   4.0 mph 64% 0.00 in
12:14 77.8 °F 64.6 °F 30.19 in SE 1.0 mph 4.0 mph 64% 0.00 in
12:19 77.6 °F 63.5 °F 30.18 in SSE 1.0 mph 3.0 mph 62% 0.00 in
12:24 78.4 °F 64.8 °F 30.18 in SSE 2.0 mph 4.0 mph 63% 0.00 in
12:29 78.5 °F 63.9 °F 30.18 in SE 2.0 mph 5.0 mph 61% 0.00 in
12:34 78.5 °F 64.4 °F 30.18 in NNW 3.0 mph 3.0 mph 62% 0.00 in
12:39 78.2 °F 63.6 °F 30.18 in NNW 2.0 mph 4.0 mph 61% 0.00 in
12:44 78.2 °F 63.6 °F 30.18 in NNW 2.0 mph 4.0 mph 61% 0.00 in
12:49 79.0 °F 64.9 °F 30.18 in NNW 2.0 mph 4.0 mph 62% 0.00 in
12:54 79.0 °F 65.8 °F 30.18 in North 2.0 mph 3.0 mph 64% 0.00 in
12:59 78.9 °F 65.2 °F 30.18 in North 2.0 mph 6.0 mph 63% 0.00 in
13:04 78.6 °F 64.0 °F 30.17 in North 1.0 mph 3.0 mph 61% 0.00 in
13:09 77.8 °F 64.6 °F 30.17 in North 1.0 mph 4.0 mph 64% 0.00 in
13:14 77.7 °F 64.1 °F 30.17 in North 2.0 mph 4.0 mph 63% 0.00 in
13:19 78.7 °F 64.6 °F 30.17 in North 1.0 mph 3.0 mph 62% 0.00 in
13:24 78.5 °F 63.5 °F 30.17 in NW 1.0 mph 4.0 mph 60% 0.00 in
13:29 78.2 °F 64.1 °F 30.17 in WNW 1.0 mph 4.0 mph 62% 0.00 in
13:34 78.4 °F 63.8 °F 30.17 in Calm     61% 0.00 in
13:39 78.5 °F 63.9 °F 30.17 in WNW 1.0 mph 3.0 mph 61% 0.00 in
13:44 78.4 °F 63.4 °F 30.17 in WNW 1.0 mph 3.0 mph 60% 0.00 in
13:49 79.2 °F 63.6 °F 30.16 in WNW 1.0 mph 3.0 mph 59% 0.00 in
13:54 79.7 °F 65.1 °F 30.16 in NW 2.0 mph 3.0 mph 61% 0.00 in
13:59 80.0 °F 64.9 °F 30.16 in NW 1.0 mph 3.0 mph 60% 0.00 in
14:04 80.5 °F 64.4 °F 30.16 in Calm   3.0 mph 58% 0.00 in
14:09 80.5 °F 63.9 °F 30.16 in Calm   2.0 mph 57% 0.00 in
14:14 81.4 °F 64.7 °F 30.16 in Calm   2.0 mph 57% 0.00 in
14:19 81.6 °F 66.4 °F 30.16 in Calm   2.0 mph 60% 0.00 in
14:24 81.8 °F 65.1 °F 30.16 in NW 3.0 mph 4.0 mph 57% 0.00 in
14:29 81.8 °F 64.1 °F 30.15 in NE 1.0 mph 3.0 mph 55% 0.00 in
14:34 81.9 °F 66.6 °F 30.15 in NE 4.0 mph 4.0 mph 60% 0.00 in
14:39 82.0 °F 65.3 °F 30.15 in North 3.0 mph 4.0 mph 57% 0.00 in
14:44 82.1 °F 64.3 °F 30.15 in NE 2.0 mph 4.0 mph 55% 0.00 in
14:49 81.8 °F 65.6 °F 30.15 in North 1.0 mph 4.0 mph 58% 0.00 in
14:54 82.5 °F 64.7 °F 30.15 in NNE 1.0 mph 4.0 mph 55% 0.00 in
14:59 82.2 °F 64.4 °F 30.15 in North 1.0 mph 4.0 mph 55% 0.00 in
15:04 82.2 °F 63.9 °F 30.15 in North 2.0 mph 4.0 mph 54% 0.00 in
15:09 82.5 °F 64.7 °F 30.15 in Calm   4.0 mph 55% 0.00 in
15:14 82.9 °F 65.6 °F 30.15 in NNW 2.0 mph 6.0 mph 56% 0.00 in
15:19 82.0 °F 63.7 °F 30.15 in NE 3.0 mph 4.0 mph 54% 0.00 in
15:24 81.4 °F 63.2 °F 30.15 in ENE 5.0 mph 7.0 mph 54% 0.00 in
15:29 81.0 °F 62.3 °F 30.14 in Calm   6.0 mph 53% 0.00 in
15:34 80.6 °F 62.4 °F 30.15 in ENE 2.0 mph 4.0 mph 54% 0.00 in
15:39 80.2 °F 63.1 °F 30.15 in NE 1.0 mph 4.0 mph 56% 0.00 in
15:44 79.9 °F 63.8 °F 30.15 in NNE 1.0 mph 3.0 mph 58% 0.00 in
15:49 80.6 °F 64.0 °F 30.15 in North 2.0 mph 4.0 mph 57% 0.00 in
15:54 80.6 °F 63.5 °F 30.14 in NNW 2.0 mph 5.0 mph 56% 0.00 in
15:59 81.0 °F 63.8 °F 30.14 in NNW 2.0 mph 6.0 mph 56% 0.00 in
16:04 80.6 °F 63.5 °F 30.14 in NNW 3.0 mph 4.0 mph 56% 0.00 in
16:09 80.2 °F 63.6 °F 30.14 in NW 2.0 mph 5.0 mph 57% 0.00 in
16:14 80.4 °F 63.8 °F 30.14 in WNW 3.0 mph 5.0 mph 57% 0.00 in
16:19 80.8 °F 63.1 °F 30.14 in NNW 1.0 mph 6.0 mph 55% 0.00 in
16:24 80.9 °F 65.2 °F 30.14 in NW 3.0 mph 4.0 mph 59% 0.00 in
16:29 81.2 °F 63.5 °F 30.14 in NW 1.0 mph 4.0 mph 55% 0.00 in
16:34 81.4 °F 63.7 °F 30.14 in NW 2.0 mph 4.0 mph 55% 0.00 in
16:39 81.9 °F 65.7 °F 30.14 in NW 1.0 mph 4.0 mph 58% 0.00 in
16:44 81.4 °F 64.2 °F 30.14 in NNW 1.0 mph 4.0 mph 56% 0.00 in
16:49 81.2 °F 64.5 °F 30.14 in North 2.0 mph 6.0 mph 57% 0.00 in
16:54 80.7 °F 64.5 °F 30.14 in North 3.0 mph 7.0 mph 58% 0.00 in
16:59 80.8 °F 64.6 °F 30.13 in North 2.0 mph 7.0 mph 58% 0.00 in
17:04 80.6 °F 64.0 °F 30.13 in NNE 2.0 mph 4.0 mph 57% 0.00 in
17:09 80.6 °F 64.5 °F 30.13 in NW 2.0 mph 5.0 mph 58% 0.00 in
17:14 80.6 °F 64.5 °F 30.13 in WNW 2.0 mph 4.0 mph 58% 0.00 in
17:19 80.6 °F 64.5 °F 30.13 in NW 4.0 mph 5.0 mph 58% 0.00 in
17:24 80.3 °F 66.1 °F 30.13 in NNW 2.0 mph 5.0 mph 62% 0.00 in
17:29 79.4 °F 66.2 °F 30.13 in NNW 5.0 mph 8.0 mph 64% 0.00 in
17:34 78.9 °F 66.1 °F 30.13 in Calm   6.0 mph 65% 0.00 in
17:39 78.6 °F 66.7 °F 30.13 in North 1.0 mph 5.0 mph 67% 0.00 in
17:44 78.6 °F 66.3 °F 30.13 in NNE 2.0 mph 9.0 mph 66% 0.00 in
17:49 78.1 °F 66.2 °F 30.13 in NNE 2.0 mph 9.0 mph 67% 0.00 in
17:54 77.8 °F 66.4 °F 30.13 in NNE 2.0 mph 7.0 mph 68% 0.00 in
17:59 77.4 °F 66.0 °F 30.13 in NE 2.0 mph 9.0 mph 68% 0.00 in
18:04 77.1 °F 66.1 °F 30.13 in NE 2.0 mph 9.0 mph 69% 0.00 in
18:14 76.9 °F 66.0 °F 30.13 in NE 3.0 mph 8.0 mph 69% 0.00 in
18:19 76.7 °F 65.8 °F 30.13 in NE 3.0 mph 8.0 mph 69% 0.00 in
18:24 76.4 °F 65.9 °F 30.13 in NE 3.0 mph 7.0 mph 70% 0.00 in
18:29 76.2 °F 66.1 °F 30.13 in NE 1.0 mph 5.0 mph 71% 0.00 in
18:34 76.0 °F 65.9 °F 30.13 in Calm   3.0 mph 71% 0.00 in
18:39 75.8 °F 66.1 °F 30.13 in Calm   3.0 mph 72% 0.00 in
18:44 75.4 °F 66.1 °F 30.13 in NNE 1.0 mph 3.0 mph 73% 0.00 in
18:49 75.2 °F 65.9 °F 30.13 in NNE 1.0 mph 3.0 mph 73% 0.00 in
18:54 75.0 °F 65.8 °F 30.13 in NE 1.0 mph 5.0 mph 73% 0.00 in
18:59 74.8 °F 66.0 °F 30.13 in Calm   2.0 mph 74% 0.00 in
19:04 74.4 °F 65.6 °F 30.13 in Calm   4.0 mph 74% 0.00 in
19:09 74.2 °F 65.8 °F 30.13 in NE 2.0 mph 5.0 mph 75% 0.00 in
19:14 74.0 °F 65.6 °F 30.13 in ENE 1.0 mph 5.0 mph 75% 0.00 in
19:19 73.7 °F 65.7 °F 30.13 in NE 1.0 mph 4.0 mph 76% 0.00 in
19:24 73.5 °F 65.5 °F 30.13 in NE 1.0 mph 6.0 mph 76% 0.00 in
19:29 73.3 °F 65.3 °F 30.13 in NE 1.0 mph 6.0 mph 76% 0.00 in
19:34 73.3 °F 65.7 °F 30.13 in NE 1.0 mph 4.0 mph 77% 0.00 in
19:39 73.1 °F 65.5 °F 30.13 in Calm   4.0 mph 77% 0.00 in
19:44 72.8 °F 65.2 °F 30.13 in Calm   4.0 mph 77% 0.00 in
19:49 72.5 °F 65.2 °F 30.13 in Calm   4.0 mph 78% 0.00 in
19:54 72.4 °F 65.2 °F 30.13 in NE 1.0 mph 3.0 mph 78% 0.00 in
19:59 72.4 °F 65.2 °F 30.13 in NE 3.0 mph 8.0 mph 78% 0.00 in
20:04 72.2 °F 65.0 °F 30.13 in ENE 1.0 mph 7.0 mph 78% 0.00 in
20:09 72.1 °F 64.9 °F 30.13 in NE 4.0 mph 7.0 mph 78% 0.00 in
20:14 71.9 °F 64.7 °F 30.13 in NE 4.0 mph 8.0 mph 78% 0.00 in
20:19 71.8 °F 64.6 °F 30.14 in NE 3.0 mph 8.0 mph 78% 0.00 in
20:24 71.6 °F 64.4 °F 30.14 in NE 2.0 mph 5.0 mph 78% 0.00 in
20:29 71.5 °F 64.6 °F 30.14 in Calm   4.0 mph 79% 0.00 in
20:34 71.1 °F 64.3 °F 30.14 in NE 1.0 mph 3.0 mph 79% 0.00 in
20:39 70.9 °F 64.4 °F 30.14 in NE 2.0 mph 4.0 mph 80% 0.00 in
20:44 70.8 °F 64.0 °F 30.14 in NE 1.0 mph 4.0 mph 79% 0.00 in
20:49 70.8 °F 64.3 °F 30.14 in NE 1.0 mph 4.0 mph 80% 0.00 in
20:54 70.6 °F 63.8 °F 30.14 in NE 2.0 mph 3.0 mph 79% 0.00 in
20:59 70.4 °F 63.9 °F 30.14 in Calm   2.0 mph 80% 0.00 in
21:04 70.3 °F 63.8 °F 30.14 in ENE 3.0 mph 4.0 mph 80% 0.00 in
21:09 70.2 °F 63.7 °F 30.14 in NE 3.0 mph 5.0 mph 80% 0.00 in
21:14 70.2 °F 63.7 °F 30.14 in NE 2.0 mph 5.0 mph 80% 0.00 in
21:19 70.1 °F 63.6 °F 30.14 in NE 2.0 mph 5.0 mph 80% 0.00 in
21:24 70.0 °F 63.5 °F 30.14 in ENE 3.0 mph 9.0 mph 80% 0.00 in
21:29 70.0 °F 63.5 °F 30.14 in ENE 3.0 mph 9.0 mph 80% 0.00 in
21:34 69.9 °F 63.4 °F 30.14 in ENE 2.0 mph 5.0 mph 80% 0.00 in
21:39 69.5 °F 63.4 °F 30.14 in ENE 1.0 mph 4.0 mph 81% 0.00 in
21:44 69.4 °F 63.3 °F 30.14 in ENE 1.0 mph 4.0 mph 81% 0.00 in
21:49 69.3 °F 63.2 °F 30.14 in Calm     81% 0.00 in
21:54 69.3 °F 63.2 °F 30.14 in Calm     81% 0.00 in
21:59 69.2 °F 63.1 °F 30.14 in Calm     81% 0.00 in
22:04 69.0 °F 63.3 °F 30.14 in Calm     82% 0.00 in
22:09 68.8 °F 63.1 °F 30.14 in Calm     82% 0.00 in
22:14 68.6 °F 62.9 °F 30.14 in Calm     82% 0.00 in
22:19 68.5 °F 63.1 °F 30.14 in Calm   3.0 mph 83% 0.00 in
22:24 68.5 °F 63.1 °F 30.14 in ENE 1.0 mph 7.0 mph 83% 0.00 in
22:29 68.3 °F 62.9 °F 30.14 in ENE 2.0 mph 3.0 mph 83% 0.00 in
22:34 68.3 °F 62.9 °F 30.14 in Calm   4.0 mph 83% 0.00 in
22:39 68.1 °F 63.1 °F 30.14 in Calm   2.0 mph 84% 0.00 in
22:44 67.9 °F 62.9 °F 30.14 in Calm   2.0 mph 84% 0.00 in
22:49 67.7 °F 63.0 °F 30.14 in Calm     85% 0.00 in
22:54 67.7 °F 63.0 °F 30.14 in Calm     85% 0.00 in
22:59 67.5 °F 62.8 °F 30.14 in Calm     85% 0.00 in
23:04 67.2 °F 62.5 °F 30.14 in Calm     85% 0.00 in
23:09 67.0 °F 62.7 °F 30.14 in Calm     86% 0.00 in
23:14 66.8 °F 62.5 °F 30.14 in Calm     86% 0.00 in
23:19 66.6 °F 62.6 °F 30.14 in Calm     87% 0.00 in
23:24 66.5 °F 62.5 °F 30.14 in Calm     87% 0.00 in
23:29 66.3 °F 62.3 °F 30.14 in Calm     87% 0.00 in
23:34 66.2 °F 62.2 °F 30.14 in Calm     87% 0.00 in
23:39 66.0 °F 62.0 °F 30.14 in Calm     87% 0.00 in
23:44 65.9 °F 62.2 °F 30.14 in Calm     88% 0.00 in
23:49 65.8 °F 62.1 °F 30.14 in Calm     88% 0.00 in
23:54 65.5 °F 61.9 °F 30.14 in Calm     88% 0.00 in
23:59 65.4 °F 61.8 °F 30.14 in Calm     88% 0.00 in
Buffalo, New York, USA
Compliments of Weather Underground - 2.5 mb